sensor_id;sensor_type;location;lat;lon;timestamp;P1;durP1;ratioP1;P2;durP2;ratioP2
73421;SDS011;61637;47.760;-122.022;2023-08-06T00:00:01;6.6;;;2.5;;
73421;SDS011;61637;47.760;-122.022;2023-08-06T00:02:01;5.4;;;2.4;;
73421;SDS011;61637;47.760;-122.022;2023-08-06T00:04:01;6.3;;;2.2;;
73421;SDS011;61637;47.760;-122.022;2023-08-06T00:06:01;7.0;;;2.2;;
73421;SDS011;61637;47.760;-122.022;2023-08-06T00:08:01;6.2;;;2.1;;
73421;SDS011;61637;47.760;-122.022;2023-08-06T00:10:01;6.6;;;2.4;;
73421;SDS011;61637;47.760;-122.022;2023-08-06T00:12:01;6.5;;;2.3;;
73421;SDS011;61637;47.760;-122.022;2023-08-06T00:14:01;6.5;;;2.5;;
73421;SDS011;61637;47.760;-122.022;2023-08-06T00:16:10;6.3;;;2.3;;
73421;SDS011;61637;47.760;-122.022;2023-08-06T00:18:01;6.6;;;2.4;;
73421;SDS011;61637;47.760;-122.022;2023-08-06T00:20:01;6.4;;;2.5;;
73421;SDS011;61637;47.760;-122.022;2023-08-06T00:22:01;7.1;;;2.5;;
73421;SDS011;61637;47.760;-122.022;2023-08-06T00:24:01;6.8;;;2.3;;
73421;SDS011;61637;47.760;-122.022;2023-08-06T00:26:01;7.9;;;2.2;;
73421;SDS011;61637;47.760;-122.022;2023-08-06T00:28:01;5.6;;;2.1;;
73421;SDS011;61637;47.760;-122.022;2023-08-06T00:30:01;5.7;;;2.3;;
73421;SDS011;61637;47.760;-122.022;2023-08-06T00:32:01;6.5;;;2.5;;
73421;SDS011;61637;47.760;-122.022;2023-08-06T00:34:01;7.6;;;2.2;;
73421;SDS011;61637;47.760;-122.022;2023-08-06T00:36:01;7.0;;;2.3;;
73421;SDS011;61637;47.760;-122.022;2023-08-06T00:38:01;5.6;;;2.1;;
73421;SDS011;61637;47.760;-122.022;2023-08-06T00:40:01;7.8;;;2.4;;
73421;SDS011;61637;47.760;-122.022;2023-08-06T00:42:01;8.1;;;2.4;;
73421;SDS011;61637;47.760;-122.022;2023-08-06T00:44:01;7.3;;;2.4;;
73421;SDS011;61637;47.760;-122.022;2023-08-06T00:46:02;7.3;;;2.4;;
73421;SDS011;61637;47.760;-122.022;2023-08-06T00:48:01;7.8;;;2.4;;
73421;SDS011;61637;47.760;-122.022;2023-08-06T00:50:01;7.3;;;2.2;;
73421;SDS011;61637;47.760;-122.022;2023-08-06T00:52:01;5.9;;;2.4;;
73421;SDS011;61637;47.760;-122.022;2023-08-06T00:54:01;5.3;;;2.2;;
73421;SDS011;61637;47.760;-122.022;2023-08-06T00:56:01;6.7;;;2.0;;
73421;SDS011;61637;47.760;-122.022;2023-08-06T00:58:01;6.0;;;2.4;;
73421;SDS011;61637;47.760;-122.022;2023-08-06T01:00:02;5.4;;;2.2;;
73421;SDS011;61637;47.760;-122.022;2023-08-06T01:02:01;7.7;;;2.4;;
73421;SDS011;61637;47.760;-122.022;2023-08-06T01:04:02;8.2;;;2.3;;
73421;SDS011;61637;47.760;-122.022;2023-08-06T01:06:01;7.1;;;2.4;;
73421;SDS011;61637;47.760;-122.022;2023-08-06T01:08:08;5.4;;;2.3;;
73421;SDS011;61637;47.760;-122.022;2023-08-06T01:10:15;6.6;;;2.4;;
73421;SDS011;61637;47.760;-122.022;2023-08-06T01:12:12;9.1;;;2.3;;
73421;SDS011;61637;47.760;-122.022;2023-08-06T01:14:08;5.8;;;2.2;;
73421;SDS011;61637;47.760;-122.022;2023-08-06T01:16:02;6.8;;;2.3;;
73421;SDS011;61637;47.760;-122.022;2023-08-06T01:18:01;6.3;;;2.4;;
73421;SDS011;61637;47.760;-122.022;2023-08-06T01:20:01;6.9;;;2.3;;
73421;SDS011;61637;47.760;-122.022;2023-08-06T01:22:01;5.9;;;2.2;;
73421;SDS011;61637;47.760;-122.022;2023-08-06T01:24:01;5.5;;;2.1;;
73421;SDS011;61637;47.760;-122.022;2023-08-06T01:26:07;5.4;;;2.4;;
73421;SDS011;61637;47.760;-122.022;2023-08-06T01:28:12;8.6;;;2.3;;
73421;SDS011;61637;47.760;-122.022;2023-08-06T01:30:06;6.8;;;2.2;;
73421;SDS011;61637;47.760;-122.022;2023-08-06T01:32:01;6.6;;;2.2;;
73421;SDS011;61637;47.760;-122.022;2023-08-06T01:34:03;5.8;;;2.2;;
73421;SDS011;61637;47.760;-122.022;2023-08-06T01:36:02;5.7;;;2.4;;
73421;SDS011;61637;47.760;-122.022;2023-08-06T01:38:01;8.0;;;2.2;;
73421;SDS011;61637;47.760;-122.022;2023-08-06T01:40:02;6.4;;;2.0;;
73421;SDS011;61637;47.760;-122.022;2023-08-06T01:42:01;6.8;;;2.4;;
73421;SDS011;61637;47.760;-122.022;2023-08-06T01:44:01;6.4;;;2.3;;
73421;SDS011;61637;47.760;-122.022;2023-08-06T01:46:01;5.8;;;2.1;;
73421;SDS011;61637;47.760;-122.022;2023-08-06T01:48:01;7.1;;;2.5;;
73421;SDS011;61637;47.760;-122.022;2023-08-06T01:50:01;8.5;;;2.2;;
73421;SDS011;61637;47.760;-122.022;2023-08-06T01:52:01;5.7;;;2.3;;
73421;SDS011;61637;47.760;-122.022;2023-08-06T01:54:01;6.0;;;2.3;;
73421;SDS011;61637;47.760;-122.022;2023-08-06T01:56:01;7.2;;;2.2;;
73421;SDS011;61637;47.760;-122.022;2023-08-06T01:58:01;5.9;;;2.1;;
73421;SDS011;61637;47.760;-122.022;2023-08-06T02:00:01;8.6;;;2.3;;
73421;SDS011;61637;47.760;-122.022;2023-08-06T02:02:01;6.7;;;2.2;;
73421;SDS011;61637;47.760;-122.022;2023-08-06T02:04:01;5.5;;;2.3;;
73421;SDS011;61637;47.760;-122.022;2023-08-06T02:06:01;7.7;;;2.3;;
73421;SDS011;61637;47.760;-122.022;2023-08-06T02:08:01;7.0;;;2.0;;
73421;SDS011;61637;47.760;-122.022;2023-08-06T02:10:01;5.8;;;2.2;;
73421;SDS011;61637;47.760;-122.022;2023-08-06T02:12:01;8.8;;;2.3;;
73421;SDS011;61637;47.760;-122.022;2023-08-06T02:14:01;5.9;;;2.1;;
73421;SDS011;61637;47.760;-122.022;2023-08-06T02:16:01;5.1;;;2.1;;
73421;SDS011;61637;47.760;-122.022;2023-08-06T02:18:01;6.3;;;2.4;;
73421;SDS011;61637;47.760;-122.022;2023-08-06T02:20:01;5.8;;;2.5;;
73421;SDS011;61637;47.760;-122.022;2023-08-06T02:22:01;10.1;;;2.3;;
73421;SDS011;61637;47.760;-122.022;2023-08-06T02:24:01;7.2;;;2.4;;
73421;SDS011;61637;47.760;-122.022;2023-08-06T02:26:03;6.3;;;2.4;;
73421;SDS011;61637;47.760;-122.022;2023-08-06T02:28:02;8.1;;;2.3;;
73421;SDS011;61637;47.760;-122.022;2023-08-06T02:30:02;5.8;;;2.1;;
73421;SDS011;61637;47.760;-122.022;2023-08-06T02:32:01;6.1;;;1.9;;
73421;SDS011;61637;47.760;-122.022;2023-08-06T02:34:01;5.9;;;2.3;;
73421;SDS011;61637;47.760;-122.022;2023-08-06T02:36:03;9.1;;;2.2;;
73421;SDS011;61637;47.760;-122.022;2023-08-06T02:38:01;6.0;;;2.2;;
73421;SDS011;61637;47.760;-122.022;2023-08-06T02:40:01;7.6;;;2.4;;
73421;SDS011;61637;47.760;-122.022;2023-08-06T02:42:01;7.6;;;2.4;;
73421;SDS011;61637;47.760;-122.022;2023-08-06T02:44:01;6.8;;;2.3;;
73421;SDS011;61637;47.760;-122.022;2023-08-06T02:46:01;6.6;;;2.2;;
73421;SDS011;61637;47.760;-122.022;2023-08-06T02:48:01;7.3;;;2.3;;
73421;SDS011;61637;47.760;-122.022;2023-08-06T02:50:01;6.9;;;2.4;;
73421;SDS011;61637;47.760;-122.022;2023-08-06T02:52:01;5.8;;;2.3;;
73421;SDS011;61637;47.760;-122.022;2023-08-06T02:54:01;5.2;;;2.2;;
73421;SDS011;61637;47.760;-122.022;2023-08-06T02:56:01;5.3;;;2.4;;
73421;SDS011;61637;47.760;-122.022;2023-08-06T02:58:02;7.7;;;2.4;;
73421;SDS011;61637;47.760;-122.022;2023-08-06T03:00:01;7.2;;;2.4;;
73421;SDS011;61637;47.760;-122.022;2023-08-06T03:02:01;6.5;;;2.3;;
73421;SDS011;61637;47.760;-122.022;2023-08-06T03:04:01;6.8;;;2.6;;
73421;SDS011;61637;47.760;-122.022;2023-08-06T03:06:01;6.8;;;2.4;;
73421;SDS011;61637;47.760;-122.022;2023-08-06T03:08:01;6.7;;;2.3;;
73421;SDS011;61637;47.760;-122.022;2023-08-06T03:10:01;6.7;;;2.4;;
73421;SDS011;61637;47.760;-122.022;2023-08-06T03:12:01;8.9;;;2.6;;
73421;SDS011;61637;47.760;-122.022;2023-08-06T03:14:01;6.0;;;2.4;;
73421;SDS011;61637;47.760;-122.022;2023-08-06T03:16:01;6.5;;;2.3;;
73421;SDS011;61637;47.760;-122.022;2023-08-06T03:18:01;13.4;;;2.6;;
73421;SDS011;61637;47.760;-122.022;2023-08-06T03:20:01;6.2;;;2.3;;
73421;SDS011;61637;47.760;-122.022;2023-08-06T03:22:01;5.2;;;2.4;;
73421;SDS011;61637;47.760;-122.022;2023-08-06T03:24:01;6.8;;;2.4;;
73421;SDS011;61637;47.760;-122.022;2023-08-06T03:26:02;6.5;;;2.4;;
73421;SDS011;61637;47.760;-122.022;2023-08-06T03:28:01;7.9;;;2.3;;
73421;SDS011;61637;47.760;-122.022;2023-08-06T03:30:01;5.4;;;2.4;;
73421;SDS011;61637;47.760;-122.022;2023-08-06T03:32:01;5.6;;;2.4;;
73421;SDS011;61637;47.760;-122.022;2023-08-06T03:34:01;7.3;;;2.4;;
73421;SDS011;61637;47.760;-122.022;2023-08-06T03:36:01;7.9;;;2.4;;
73421;SDS011;61637;47.760;-122.022;2023-08-06T03:38:01;8.1;;;2.2;;
73421;SDS011;61637;47.760;-122.022;2023-08-06T03:40:01;8.8;;;2.6;;
73421;SDS011;61637;47.760;-122.022;2023-08-06T03:42:01;5.8;;;2.3;;
73421;SDS011;61637;47.760;-122.022;2023-08-06T03:44:01;11.0;;;2.8;;
73421;SDS011;61637;47.760;-122.022;2023-08-06T03:46:01;7.7;;;2.3;;
73421;SDS011;61637;47.760;-122.022;2023-08-06T03:48:01;6.8;;;2.4;;
73421;SDS011;61637;47.760;-122.022;2023-08-06T03:50:01;5.4;;;2.1;;
73421;SDS011;61637;47.760;-122.022;2023-08-06T03:52:01;7.7;;;2.2;;
73421;SDS011;61637;47.760;-122.022;2023-08-06T03:54:01;6.1;;;2.3;;
73421;SDS011;61637;47.760;-122.022;2023-08-06T03:56:01;6.0;;;2.3;;
73421;SDS011;61637;47.760;-122.022;2023-08-06T03:58:01;6.3;;;2.3;;
73421;SDS011;61637;47.760;-122.022;2023-08-06T04:00:01;6.2;;;2.5;;
73421;SDS011;61637;47.760;-122.022;2023-08-06T04:02:01;8.6;;;2.7;;
73421;SDS011;61637;47.760;-122.022;2023-08-06T04:04:01;6.8;;;2.8;;
73421;SDS011;61637;47.760;-122.022;2023-08-06T04:06:02;7.5;;;3.0;;
73421;SDS011;61637;47.760;-122.022;2023-08-06T04:08:01;9.1;;;2.6;;
73421;SDS011;61637;47.760;-122.022;2023-08-06T04:10:03;8.1;;;2.6;;
73421;SDS011;61637;47.760;-122.022;2023-08-06T04:12:01;6.0;;;2.7;;
73421;SDS011;61637;47.760;-122.022;2023-08-06T04:14:01;6.3;;;2.8;;
73421;SDS011;61637;47.760;-122.022;2023-08-06T04:16:01;6.8;;;2.6;;
73421;SDS011;61637;47.760;-122.022;2023-08-06T04:18:01;6.1;;;2.5;;
73421;SDS011;61637;47.760;-122.022;2023-08-06T04:20:01;12.0;;;5.5;;
73421;SDS011;61637;47.760;-122.022;2023-08-06T04:22:01;5.8;;;2.5;;
73421;SDS011;61637;47.760;-122.022;2023-08-06T04:24:01;8.3;;;2.6;;
73421;SDS011;61637;47.760;-122.022;2023-08-06T04:26:01;6.1;;;2.1;;
73421;SDS011;61637;47.760;-122.022;2023-08-06T04:28:01;7.0;;;2.6;;
73421;SDS011;61637;47.760;-122.022;2023-08-06T04:30:01;5.6;;;2.6;;
73421;SDS011;61637;47.760;-122.022;2023-08-06T04:32:01;8.5;;;2.6;;
73421;SDS011;61637;47.760;-122.022;2023-08-06T04:34:01;7.7;;;2.6;;
73421;SDS011;61637;47.760;-122.022;2023-08-06T04:36:01;6.7;;;2.5;;
73421;SDS011;61637;47.760;-122.022;2023-08-06T04:38:01;6.4;;;2.5;;
73421;SDS011;61637;47.760;-122.022;2023-08-06T04:40:01;9.0;;;2.8;;
73421;SDS011;61637;47.760;-122.022;2023-08-06T04:42:01;6.8;;;2.9;;
73421;SDS011;61637;47.760;-122.022;2023-08-06T04:44:01;7.1;;;2.9;;
73421;SDS011;61637;47.760;-122.022;2023-08-06T04:46:01;8.4;;;3.1;;
73421;SDS011;61637;47.760;-122.022;2023-08-06T04:48:01;9.7;;;3.3;;
73421;SDS011;61637;47.760;-122.022;2023-08-06T04:50:01;7.5;;;3.1;;
73421;SDS011;61637;47.760;-122.022;2023-08-06T04:52:01;6.3;;;2.9;;
73421;SDS011;61637;47.760;-122.022;2023-08-06T04:54:01;5.8;;;2.9;;
73421;SDS011;61637;47.760;-122.022;2023-08-06T04:56:01;6.4;;;2.7;;
73421;SDS011;61637;47.760;-122.022;2023-08-06T04:58:01;9.4;;;2.9;;
73421;SDS011;61637;47.760;-122.022;2023-08-06T05:00:01;7.2;;;3.3;;
73421;SDS011;61637;47.760;-122.022;2023-08-06T05:02:01;6.7;;;3.0;;
73421;SDS011;61637;47.760;-122.022;2023-08-06T05:04:01;10.1;;;3.2;;
73421;SDS011;61637;47.760;-122.022;2023-08-06T05:06:01;9.2;;;2.7;;
73421;SDS011;61637;47.760;-122.022;2023-08-06T05:08:01;9.3;;;2.9;;
73421;SDS011;61637;47.760;-122.022;2023-08-06T05:10:01;7.8;;;3.1;;
73421;SDS011;61637;47.760;-122.022;2023-08-06T05:12:03;7.4;;;2.9;;
73421;SDS011;61637;47.760;-122.022;2023-08-06T05:14:01;7.1;;;2.7;;
73421;SDS011;61637;47.760;-122.022;2023-08-06T05:16:01;8.1;;;2.7;;
73421;SDS011;61637;47.760;-122.022;2023-08-06T05:18:01;8.0;;;3.1;;
73421;SDS011;61637;47.760;-122.022;2023-08-06T05:20:01;9.3;;;3.3;;
73421;SDS011;61637;47.760;-122.022;2023-08-06T05:22:01;5.9;;;3.0;;
73421;SDS011;61637;47.760;-122.022;2023-08-06T05:24:01;8.7;;;2.8;;
73421;SDS011;61637;47.760;-122.022;2023-08-06T05:26:01;8.2;;;2.7;;
73421;SDS011;61637;47.760;-122.022;2023-08-06T05:28:01;6.1;;;2.5;;
73421;SDS011;61637;47.760;-122.022;2023-08-06T05:30:01;8.2;;;2.7;;
73421;SDS011;61637;47.760;-122.022;2023-08-06T05:32:01;7.5;;;2.6;;
73421;SDS011;61637;47.760;-122.022;2023-08-06T05:34:01;9.3;;;2.7;;
73421;SDS011;61637;47.760;-122.022;2023-08-06T05:36:01;10.1;;;2.9;;
73421;SDS011;61637;47.760;-122.022;2023-08-06T05:38:01;8.1;;;2.8;;
73421;SDS011;61637;47.760;-122.022;2023-08-06T05:40:01;8.4;;;2.8;;
73421;SDS011;61637;47.760;-122.022;2023-08-06T05:42:01;6.3;;;2.5;;
73421;SDS011;61637;47.760;-122.022;2023-08-06T05:44:01;7.1;;;2.6;;
73421;SDS011;61637;47.760;-122.022;2023-08-06T05:46:01;6.7;;;2.5;;
73421;SDS011;61637;47.760;-122.022;2023-08-06T05:48:01;6.1;;;2.6;;
73421;SDS011;61637;47.760;-122.022;2023-08-06T05:50:01;6.4;;;2.8;;
73421;SDS011;61637;47.760;-122.022;2023-08-06T05:52:01;8.6;;;2.8;;
73421;SDS011;61637;47.760;-122.022;2023-08-06T05:54:01;8.5;;;2.6;;
73421;SDS011;61637;47.760;-122.022;2023-08-06T05:56:01;7.7;;;2.6;;
73421;SDS011;61637;47.760;-122.022;2023-08-06T05:58:01;8.3;;;2.6;;
73421;SDS011;61637;47.760;-122.022;2023-08-06T06:00:01;7.1;;;2.7;;
73421;SDS011;61637;47.760;-122.022;2023-08-06T06:02:01;7.5;;;2.7;;
73421;SDS011;61637;47.760;-122.022;2023-08-06T06:04:01;6.6;;;2.8;;
73421;SDS011;61637;47.760;-122.022;2023-08-06T06:06:02;5.4;;;2.5;;
73421;SDS011;61637;47.760;-122.022;2023-08-06T06:08:01;6.1;;;2.5;;
73421;SDS011;61637;47.760;-122.022;2023-08-06T06:10:01;6.9;;;2.6;;
73421;SDS011;61637;47.760;-122.022;2023-08-06T06:12:01;7.0;;;2.6;;
73421;SDS011;61637;47.760;-122.022;2023-08-06T06:14:01;6.1;;;2.3;;
73421;SDS011;61637;47.760;-122.022;2023-08-06T06:16:01;5.8;;;2.8;;
73421;SDS011;61637;47.760;-122.022;2023-08-06T06:18:01;6.2;;;2.7;;
73421;SDS011;61637;47.760;-122.022;2023-08-06T06:20:01;7.3;;;2.6;;
73421;SDS011;61637;47.760;-122.022;2023-08-06T06:22:01;6.0;;;2.5;;
73421;SDS011;61637;47.760;-122.022;2023-08-06T06:24:01;6.2;;;2.6;;
73421;SDS011;61637;47.760;-122.022;2023-08-06T06:26:01;7.5;;;2.8;;
73421;SDS011;61637;47.760;-122.022;2023-08-06T06:28:01;7.3;;;2.9;;
73421;SDS011;61637;47.760;-122.022;2023-08-06T06:30:01;7.4;;;2.8;;
73421;SDS011;61637;47.760;-122.022;2023-08-06T06:32:01;5.6;;;2.9;;
73421;SDS011;61637;47.760;-122.022;2023-08-06T06:34:01;6.4;;;3.1;;
73421;SDS011;61637;47.760;-122.022;2023-08-06T06:36:01;6.9;;;3.1;;
73421;SDS011;61637;47.760;-122.022;2023-08-06T06:38:01;8.4;;;3.5;;
73421;SDS011;61637;47.760;-122.022;2023-08-06T06:40:01;6.4;;;3.1;;
73421;SDS011;61637;47.760;-122.022;2023-08-06T06:42:01;5.8;;;3.1;;
73421;SDS011;61637;47.760;-122.022;2023-08-06T06:44:01;8.1;;;3.1;;
73421;SDS011;61637;47.760;-122.022;2023-08-06T06:46:02;6.8;;;3.1;;
73421;SDS011;61637;47.760;-122.022;2023-08-06T06:48:01;7.4;;;3.1;;
73421;SDS011;61637;47.760;-122.022;2023-08-06T06:50:01;7.6;;;3.1;;
73421;SDS011;61637;47.760;-122.022;2023-08-06T06:52:01;8.4;;;3.3;;
73421;SDS011;61637;47.760;-122.022;2023-08-06T06:54:01;8.9;;;3.3;;
73421;SDS011;61637;47.760;-122.022;2023-08-06T06:56:02;8.5;;;3.5;;
73421;SDS011;61637;47.760;-122.022;2023-08-06T06:58:01;9.9;;;3.3;;
73421;SDS011;61637;47.760;-122.022;2023-08-06T07:00:01;12.4;;;2.9;;
73421;SDS011;61637;47.760;-122.022;2023-08-06T07:02:01;9.5;;;3.3;;
73421;SDS011;61637;47.760;-122.022;2023-08-06T07:04:01;8.3;;;3.4;;
73421;SDS011;61637;47.760;-122.022;2023-08-06T07:06:01;7.9;;;2.7;;
73421;SDS011;61637;47.760;-122.022;2023-08-06T07:08:01;6.9;;;2.9;;
73421;SDS011;61637;47.760;-122.022;2023-08-06T07:10:01;7.9;;;2.8;;
73421;SDS011;61637;47.760;-122.022;2023-08-06T07:12:01;6.9;;;2.9;;
73421;SDS011;61637;47.760;-122.022;2023-08-06T07:14:01;9.2;;;2.6;;
73421;SDS011;61637;47.760;-122.022;2023-08-06T07:16:01;8.2;;;2.8;;
73421;SDS011;61637;47.760;-122.022;2023-08-06T07:18:01;9.8;;;2.8;;
73421;SDS011;61637;47.760;-122.022;2023-08-06T07:20:01;8.2;;;2.7;;
73421;SDS011;61637;47.760;-122.022;2023-08-06T07:22:01;8.0;;;3.0;;
73421;SDS011;61637;47.760;-122.022;2023-08-06T07:24:01;6.8;;;2.8;;
73421;SDS011;61637;47.760;-122.022;2023-08-06T07:26:01;8.5;;;3.1;;
73421;SDS011;61637;47.760;-122.022;2023-08-06T07:28:01;7.8;;;3.0;;
73421;SDS011;61637;47.760;-122.022;2023-08-06T07:30:01;8.5;;;3.3;;
73421;SDS011;61637;47.760;-122.022;2023-08-06T07:32:01;8.5;;;3.3;;
73421;SDS011;61637;47.760;-122.022;2023-08-06T07:34:01;7.7;;;2.7;;
73421;SDS011;61637;47.760;-122.022;2023-08-06T07:36:08;6.3;;;2.6;;
73421;SDS011;61637;47.760;-122.022;2023-08-06T07:38:01;6.3;;;2.6;;
73421;SDS011;61637;47.760;-122.022;2023-08-06T07:40:01;10.2;;;2.9;;
73421;SDS011;61637;47.760;-122.022;2023-08-06T07:42:01;9.5;;;3.1;;
73421;SDS011;61637;47.760;-122.022;2023-08-06T07:44:01;10.6;;;3.3;;
73421;SDS011;61637;47.760;-122.022;2023-08-06T07:46:02;8.3;;;3.5;;
73421;SDS011;61637;47.760;-122.022;2023-08-06T07:48:01;8.3;;;3.3;;
73421;SDS011;61637;47.760;-122.022;2023-08-06T07:50:01;7.7;;;3.5;;
73421;SDS011;61637;47.760;-122.022;2023-08-06T07:52:01;7.9;;;3.2;;
73421;SDS011;61637;47.760;-122.022;2023-08-06T07:54:01;8.7;;;3.4;;
73421;SDS011;61637;47.760;-122.022;2023-08-06T07:56:01;8.6;;;3.7;;
73421;SDS011;61637;47.760;-122.022;2023-08-06T07:58:01;8.4;;;3.6;;
73421;SDS011;61637;47.760;-122.022;2023-08-06T08:00:01;8.8;;;3.3;;
73421;SDS011;61637;47.760;-122.022;2023-08-06T08:02:01;9.1;;;3.4;;
73421;SDS011;61637;47.760;-122.022;2023-08-06T08:04:01;6.2;;;3.3;;
73421;SDS011;61637;47.760;-122.022;2023-08-06T08:06:01;8.7;;;3.4;;
73421;SDS011;61637;47.760;-122.022;2023-08-06T08:08:01;9.2;;;3.3;;
73421;SDS011;61637;47.760;-122.022;2023-08-06T08:10:01;8.2;;;3.6;;
73421;SDS011;61637;47.760;-122.022;2023-08-06T08:12:01;7.0;;;3.4;;
73421;SDS011;61637;47.760;-122.022;2023-08-06T08:14:01;7.0;;;3.7;;
73421;SDS011;61637;47.760;-122.022;2023-08-06T08:16:02;22.3;;;3.6;;
73421;SDS011;61637;47.760;-122.022;2023-08-06T08:18:01;9.2;;;3.9;;
73421;SDS011;61637;47.760;-122.022;2023-08-06T08:20:01;8.9;;;3.5;;
73421;SDS011;61637;47.760;-122.022;2023-08-06T08:22:01;7.5;;;3.6;;
73421;SDS011;61637;47.760;-122.022;2023-08-06T08:24:03;8.3;;;3.7;;
73421;SDS011;61637;47.760;-122.022;2023-08-06T08:26:01;8.3;;;4.4;;
73421;SDS011;61637;47.760;-122.022;2023-08-06T08:28:01;7.8;;;4.0;;
73421;SDS011;61637;47.760;-122.022;2023-08-06T08:30:01;8.0;;;4.5;;
73421;SDS011;61637;47.760;-122.022;2023-08-06T08:32:01;9.0;;;4.0;;
73421;SDS011;61637;47.760;-122.022;2023-08-06T08:34:01;8.9;;;4.2;;
73421;SDS011;61637;47.760;-122.022;2023-08-06T08:36:01;9.8;;;4.3;;
73421;SDS011;61637;47.760;-122.022;2023-08-06T08:38:01;8.9;;;4.0;;
73421;SDS011;61637;47.760;-122.022;2023-08-06T08:40:01;8.2;;;4.2;;
73421;SDS011;61637;47.760;-122.022;2023-08-06T08:42:01;8.5;;;4.1;;
73421;SDS011;61637;47.760;-122.022;2023-08-06T08:44:02;7.2;;;4.2;;
73421;SDS011;61637;47.760;-122.022;2023-08-06T08:46:01;8.3;;;4.7;;
73421;SDS011;61637;47.760;-122.022;2023-08-06T08:48:01;9.7;;;4.7;;
73421;SDS011;61637;47.760;-122.022;2023-08-06T08:50:02;8.2;;;4.2;;
73421;SDS011;61637;47.760;-122.022;2023-08-06T08:52:03;7.9;;;4.0;;
73421;SDS011;61637;47.760;-122.022;2023-08-06T08:54:02;8.6;;;3.9;;
73421;SDS011;61637;47.760;-122.022;2023-08-06T08:56:01;10.0;;;4.2;;
73421;SDS011;61637;47.760;-122.022;2023-08-06T08:58:01;7.2;;;4.0;;
73421;SDS011;61637;47.760;-122.022;2023-08-06T09:00:01;10.7;;;3.9;;
73421;SDS011;61637;47.760;-122.022;2023-08-06T09:02:01;10.0;;;4.6;;
73421;SDS011;61637;47.760;-122.022;2023-08-06T09:04:01;9.8;;;4.5;;
73421;SDS011;61637;47.760;-122.022;2023-08-06T09:06:02;11.4;;;5.2;;
73421;SDS011;61637;47.760;-122.022;2023-08-06T09:08:03;8.5;;;5.0;;
73421;SDS011;61637;47.760;-122.022;2023-08-06T09:10:03;11.0;;;5.4;;
73421;SDS011;61637;47.760;-122.022;2023-08-06T09:12:02;10.2;;;4.9;;
73421;SDS011;61637;47.760;-122.022;2023-08-06T09:14:01;10.1;;;4.9;;
73421;SDS011;61637;47.760;-122.022;2023-08-06T09:16:01;10.2;;;5.5;;
73421;SDS011;61637;47.760;-122.022;2023-08-06T09:18:08;8.4;;;5.5;;
73421;SDS011;61637;47.760;-122.022;2023-08-06T09:20:08;8.9;;;5.6;;
73421;SDS011;61637;47.760;-122.022;2023-08-06T09:22:02;10.4;;;5.7;;
73421;SDS011;61637;47.760;-122.022;2023-08-06T09:24:01;11.0;;;5.8;;
73421;SDS011;61637;47.760;-122.022;2023-08-06T09:26:01;9.2;;;5.4;;
73421;SDS011;61637;47.760;-122.022;2023-08-06T09:28:03;10.2;;;5.4;;
73421;SDS011;61637;47.760;-122.022;2023-08-06T09:30:01;9.3;;;5.5;;
73421;SDS011;61637;47.760;-122.022;2023-08-06T09:32:01;9.1;;;5.4;;
73421;SDS011;61637;47.760;-122.022;2023-08-06T09:34:01;10.5;;;5.5;;
73421;SDS011;61637;47.760;-122.022;2023-08-06T09:36:08;9.2;;;5.5;;
73421;SDS011;61637;47.760;-122.022;2023-08-06T09:38:09;9.3;;;5.7;;
73421;SDS011;61637;47.760;-122.022;2023-08-06T09:40:01;11.7;;;5.8;;
73421;SDS011;61637;47.760;-122.022;2023-08-06T09:42:02;11.8;;;5.4;;
73421;SDS011;61637;47.760;-122.022;2023-08-06T09:44:01;10.1;;;5.7;;
73421;SDS011;61637;47.760;-122.022;2023-08-06T09:46:01;10.6;;;5.5;;
73421;SDS011;61637;47.760;-122.022;2023-08-06T09:48:02;10.9;;;5.8;;
73421;SDS011;61637;47.760;-122.022;2023-08-06T09:50:01;8.9;;;5.4;;
73421;SDS011;61637;47.760;-122.022;2023-08-06T09:52:01;11.5;;;5.9;;
73421;SDS011;61637;47.760;-122.022;2023-08-06T09:54:01;9.2;;;5.3;;
73421;SDS011;61637;47.760;-122.022;2023-08-06T09:56:01;9.2;;;5.6;;
73421;SDS011;61637;47.760;-122.022;2023-08-06T09:58:01;11.5;;;5.6;;
73421;SDS011;61637;47.760;-122.022;2023-08-06T10:00:02;11.0;;;5.7;;
73421;SDS011;61637;47.760;-122.022;2023-08-06T10:02:01;9.7;;;5.5;;
73421;SDS011;61637;47.760;-122.022;2023-08-06T10:04:03;8.1;;;4.9;;
73421;SDS011;61637;47.760;-122.022;2023-08-06T10:06:01;7.8;;;5.2;;
73421;SDS011;61637;47.760;-122.022;2023-08-06T10:08:01;9.5;;;5.0;;
73421;SDS011;61637;47.760;-122.022;2023-08-06T10:10:02;10.4;;;5.4;;
73421;SDS011;61637;47.760;-122.022;2023-08-06T10:12:01;9.6;;;5.4;;
73421;SDS011;61637;47.760;-122.022;2023-08-06T10:14:05;9.3;;;5.2;;
73421;SDS011;61637;47.760;-122.022;2023-08-06T10:16:02;11.9;;;5.5;;
73421;SDS011;61637;47.760;-122.022;2023-08-06T10:18:01;12.7;;;5.2;;
73421;SDS011;61637;47.760;-122.022;2023-08-06T10:20:02;9.2;;;5.1;;
73421;SDS011;61637;47.760;-122.022;2023-08-06T10:22:09;8.6;;;5.5;;
73421;SDS011;61637;47.760;-122.022;2023-08-06T10:24:01;9.7;;;5.6;;
73421;SDS011;61637;47.760;-122.022;2023-08-06T10:26:01;9.7;;;5.5;;
73421;SDS011;61637;47.760;-122.022;2023-08-06T10:28:07;8.6;;;5.0;;
73421;SDS011;61637;47.760;-122.022;2023-08-06T10:32:01;8.0;;;4.6;;
73421;SDS011;61637;47.760;-122.022;2023-08-06T10:34:01;9.0;;;4.5;;
73421;SDS011;61637;47.760;-122.022;2023-08-06T10:36:01;8.7;;;4.7;;
73421;SDS011;61637;47.760;-122.022;2023-08-06T10:38:05;12.4;;;4.9;;
73421;SDS011;61637;47.760;-122.022;2023-08-06T10:40:02;7.9;;;4.4;;
73421;SDS011;61637;47.760;-122.022;2023-08-06T10:42:01;8.2;;;4.5;;
73421;SDS011;61637;47.760;-122.022;2023-08-06T10:44:06;8.9;;;4.6;;
73421;SDS011;61637;47.760;-122.022;2023-08-06T10:46:02;7.8;;;5.0;;
73421;SDS011;61637;47.760;-122.022;2023-08-06T10:48:01;7.9;;;4.6;;
73421;SDS011;61637;47.760;-122.022;2023-08-06T10:50:01;7.8;;;4.4;;
73421;SDS011;61637;47.760;-122.022;2023-08-06T10:52:01;8.9;;;4.5;;
73421;SDS011;61637;47.760;-122.022;2023-08-06T10:54:01;7.3;;;4.1;;
73421;SDS011;61637;47.760;-122.022;2023-08-06T10:56:01;8.6;;;4.8;;
73421;SDS011;61637;47.760;-122.022;2023-08-06T10:58:01;8.8;;;4.4;;
73421;SDS011;61637;47.760;-122.022;2023-08-06T11:00:01;8.6;;;4.7;;
73421;SDS011;61637;47.760;-122.022;2023-08-06T11:02:01;8.5;;;4.9;;
73421;SDS011;61637;47.760;-122.022;2023-08-06T11:04:02;8.6;;;4.5;;
73421;SDS011;61637;47.760;-122.022;2023-08-06T11:06:01;7.4;;;4.4;;
73421;SDS011;61637;47.760;-122.022;2023-08-06T11:08:01;8.6;;;5.2;;
73421;SDS011;61637;47.760;-122.022;2023-08-06T11:10:04;10.4;;;5.2;;
73421;SDS011;61637;47.760;-122.022;2023-08-06T11:12:01;8.6;;;5.5;;
73421;SDS011;61637;47.760;-122.022;2023-08-06T11:14:01;8.5;;;5.3;;
73421;SDS011;61637;47.760;-122.022;2023-08-06T11:16:01;8.1;;;5.2;;
73421;SDS011;61637;47.760;-122.022;2023-08-06T11:18:01;7.8;;;5.1;;
73421;SDS011;61637;47.760;-122.022;2023-08-06T11:20:02;8.3;;;4.7;;
73421;SDS011;61637;47.760;-122.022;2023-08-06T11:22:01;10.0;;;4.8;;
73421;SDS011;61637;47.760;-122.022;2023-08-06T11:24:01;7.7;;;4.3;;
73421;SDS011;61637;47.760;-122.022;2023-08-06T11:26:01;6.9;;;4.2;;
73421;SDS011;61637;47.760;-122.022;2023-08-06T11:28:01;7.2;;;4.5;;
73421;SDS011;61637;47.760;-122.022;2023-08-06T11:30:01;7.5;;;4.4;;
73421;SDS011;61637;47.760;-122.022;2023-08-06T11:32:03;7.4;;;4.5;;
73421;SDS011;61637;47.760;-122.022;2023-08-06T11:34:01;7.7;;;4.1;;
73421;SDS011;61637;47.760;-122.022;2023-08-06T11:36:01;9.1;;;3.9;;
73421;SDS011;61637;47.760;-122.022;2023-08-06T11:38:01;8.0;;;3.7;;
73421;SDS011;61637;47.760;-122.022;2023-08-06T11:40:01;6.7;;;4.0;;
73421;SDS011;61637;47.760;-122.022;2023-08-06T11:42:02;7.0;;;4.0;;
73421;SDS011;61637;47.760;-122.022;2023-08-06T11:44:01;7.9;;;4.1;;
73421;SDS011;61637;47.760;-122.022;2023-08-06T11:46:01;7.4;;;4.2;;
73421;SDS011;61637;47.760;-122.022;2023-08-06T11:48:01;7.3;;;4.1;;
73421;SDS011;61637;47.760;-122.022;2023-08-06T11:50:01;9.1;;;4.6;;
73421;SDS011;61637;47.760;-122.022;2023-08-06T11:52:07;7.7;;;4.5;;